sensor_id;sensor_type;location;lat;lon;timestamp;P1;durP1;ratioP1;P2;durP2;ratioP2
75090;SDS011;63674;48.048;8.306;2023-07-31T00:00:52;5.20;;;1.77;;
75090;SDS011;63674;48.048;8.306;2023-07-31T00:03:20;8.20;;;1.98;;
75090;SDS011;63674;48.048;8.306;2023-07-31T00:05:49;8.68;;;2.03;;
75090;SDS011;63674;48.048;8.306;2023-07-31T00:08:18;9.93;;;2.20;;
75090;SDS011;63674;48.048;8.306;2023-07-31T00:10:50;6.90;;;1.95;;
75090;SDS011;63674;48.048;8.306;2023-07-31T00:13:20;9.27;;;1.90;;
75090;SDS011;63674;48.048;8.306;2023-07-31T00:15:48;15.45;;;2.15;;
75090;SDS011;63674;48.048;8.306;2023-07-31T00:18:17;8.15;;;2.08;;
75090;SDS011;63674;48.048;8.306;2023-07-31T00:20:45;6.17;;;1.70;;
75090;SDS011;63674;48.048;8.306;2023-07-31T00:23:14;6.75;;;1.58;;
75090;SDS011;63674;48.048;8.306;2023-07-31T00:25:43;6.05;;;1.83;;
75090;SDS011;63674;48.048;8.306;2023-07-31T00:28:12;9.02;;;1.70;;
75090;SDS011;63674;48.048;8.306;2023-07-31T00:30:41;6.75;;;1.77;;
75090;SDS011;63674;48.048;8.306;2023-07-31T00:33:10;6.37;;;1.90;;
75090;SDS011;63674;48.048;8.306;2023-07-31T00:35:38;4.53;;;1.70;;
75090;SDS011;63674;48.048;8.306;2023-07-31T00:38:07;7.20;;;1.90;;
75090;SDS011;63674;48.048;8.306;2023-07-31T00:40:36;6.82;;;2.00;;
75090;SDS011;63674;48.048;8.306;2023-07-31T00:43:05;5.88;;;2.30;;
75090;SDS011;63674;48.048;8.306;2023-07-31T00:45:35;8.77;;;1.80;;
75090;SDS011;63674;48.048;8.306;2023-07-31T00:48:04;5.30;;;1.60;;
75090;SDS011;63674;48.048;8.306;2023-07-31T00:50:34;7.60;;;2.03;;
75090;SDS011;63674;48.048;8.306;2023-07-31T00:53:03;6.88;;;2.03;;
75090;SDS011;63674;48.048;8.306;2023-07-31T00:55:31;5.57;;;1.90;;
75090;SDS011;63674;48.048;8.306;2023-07-31T00:58:00;5.27;;;1.77;;
75090;SDS011;63674;48.048;8.306;2023-07-31T01:00:29;10.38;;;1.75;;
75090;SDS011;63674;48.048;8.306;2023-07-31T01:02:59;7.38;;;1.58;;
75090;SDS011;63674;48.048;8.306;2023-07-31T01:05:39;6.78;;;1.67;;
75090;SDS011;63674;48.048;8.306;2023-07-31T01:08:29;7.63;;;1.92;;
75090;SDS011;63674;48.048;8.306;2023-07-31T01:11:07;8.40;;;1.80;;
75090;SDS011;63674;48.048;8.306;2023-07-31T01:13:44;5.35;;;1.40;;
75090;SDS011;63674;48.048;8.306;2023-07-31T01:16:13;6.13;;;1.70;;
75090;SDS011;63674;48.048;8.306;2023-07-31T01:18:43;5.72;;;1.73;;
75090;SDS011;63674;48.048;8.306;2023-07-31T01:21:18;8.43;;;1.63;;
75090;SDS011;63674;48.048;8.306;2023-07-31T01:24:15;6.57;;;1.70;;
75090;SDS011;63674;48.048;8.306;2023-07-31T01:26:53;8.35;;;1.90;;
75090;SDS011;63674;48.048;8.306;2023-07-31T01:29:31;4.47;;;1.40;;
75090;SDS011;63674;48.048;8.306;2023-07-31T01:32:05;7.25;;;1.55;;
75090;SDS011;63674;48.048;8.306;2023-07-31T01:34:35;5.78;;;1.58;;
75090;SDS011;63674;48.048;8.306;2023-07-31T01:37:05;5.97;;;1.83;;
75090;SDS011;63674;48.048;8.306;2023-07-31T01:39:34;5.72;;;1.70;;
75090;SDS011;63674;48.048;8.306;2023-07-31T01:42:04;5.05;;;1.65;;
75090;SDS011;63674;48.048;8.306;2023-07-31T01:44:34;6.07;;;1.50;;
75090;SDS011;63674;48.048;8.306;2023-07-31T01:47:02;4.82;;;1.80;;
75090;SDS011;63674;48.048;8.306;2023-07-31T01:49:32;5.93;;;1.80;;
75090;SDS011;63674;48.048;8.306;2023-07-31T01:52:00;5.97;;;1.95;;
75090;SDS011;63674;48.048;8.306;2023-07-31T01:54:29;4.70;;;1.88;;
75090;SDS011;63674;48.048;8.306;2023-07-31T01:56:57;5.40;;;1.40;;
75090;SDS011;63674;48.048;8.306;2023-07-31T01:59:27;6.63;;;1.92;;
75090;SDS011;63674;48.048;8.306;2023-07-31T02:01:56;5.53;;;1.70;;
75090;SDS011;63674;48.048;8.306;2023-07-31T02:04:25;8.73;;;1.88;;
75090;SDS011;63674;48.048;8.306;2023-07-31T02:06:53;4.57;;;1.40;;
75090;SDS011;63674;48.048;8.306;2023-07-31T02:09:22;7.32;;;1.92;;
75090;SDS011;63674;48.048;8.306;2023-07-31T02:11:51;5.30;;;1.60;;
75090;SDS011;63674;48.048;8.306;2023-07-31T02:14:19;4.93;;;1.60;;
75090;SDS011;63674;48.048;8.306;2023-07-31T02:16:50;9.70;;;1.75;;
75090;SDS011;63674;48.048;8.306;2023-07-31T02:19:18;5.40;;;1.45;;
75090;SDS011;63674;48.048;8.306;2023-07-31T02:21:47;5.50;;;1.50;;
75090;SDS011;63674;48.048;8.306;2023-07-31T02:24:16;5.72;;;1.90;;
75090;SDS011;63674;48.048;8.306;2023-07-31T02:26:44;5.37;;;1.80;;
75090;SDS011;63674;48.048;8.306;2023-07-31T02:29:13;5.88;;;2.00;;
75090;SDS011;63674;48.048;8.306;2023-07-31T02:31:41;4.60;;;1.75;;
75090;SDS011;63674;48.048;8.306;2023-07-31T02:34:11;5.80;;;1.70;;
75090;SDS011;63674;48.048;8.306;2023-07-31T02:36:40;5.63;;;1.50;;
75090;SDS011;63674;48.048;8.306;2023-07-31T02:39:09;5.50;;;1.70;;
75090;SDS011;63674;48.048;8.306;2023-07-31T02:41:37;7.82;;;1.73;;
75090;SDS011;63674;48.048;8.306;2023-07-31T02:44:05;5.40;;;1.95;;
75090;SDS011;63674;48.048;8.306;2023-07-31T02:46:34;6.47;;;1.90;;
75090;SDS011;63674;48.048;8.306;2023-07-31T02:49:04;4.80;;;1.75;;
75090;SDS011;63674;48.048;8.306;2023-07-31T02:51:33;4.60;;;1.90;;
75090;SDS011;63674;48.048;8.306;2023-07-31T02:54:02;6.43;;;1.80;;
75090;SDS011;63674;48.048;8.306;2023-07-31T02:56:31;7.00;;;1.75;;
75090;SDS011;63674;48.048;8.306;2023-07-31T02:58:59;7.13;;;1.80;;
75090;SDS011;63674;48.048;8.306;2023-07-31T03:01:28;5.93;;;1.90;;
75090;SDS011;63674;48.048;8.306;2023-07-31T03:03:56;4.73;;;1.90;;
75090;SDS011;63674;48.048;8.306;2023-07-31T03:06:25;8.75;;;1.98;;
75090;SDS011;63674;48.048;8.306;2023-07-31T03:08:55;4.60;;;1.90;;
75090;SDS011;63674;48.048;8.306;2023-07-31T03:11:24;6.32;;;1.83;;
75090;SDS011;63674;48.048;8.306;2023-07-31T03:13:53;5.30;;;1.80;;
75090;SDS011;63674;48.048;8.306;2023-07-31T03:16:21;6.07;;;2.00;;
75090;SDS011;63674;48.048;8.306;2023-07-31T03:18:50;4.65;;;1.88;;
75090;SDS011;63674;48.048;8.306;2023-07-31T03:21:18;5.03;;;1.80;;
75090;SDS011;63674;48.048;8.306;2023-07-31T03:23:47;4.40;;;1.90;;
75090;SDS011;63674;48.048;8.306;2023-07-31T03:26:17;5.78;;;1.88;;
75090;SDS011;63674;48.048;8.306;2023-07-31T03:28:45;6.07;;;2.13;;
75090;SDS011;63674;48.048;8.306;2023-07-31T03:31:15;5.53;;;2.03;;
75090;SDS011;63674;48.048;8.306;2023-07-31T03:33:44;4.53;;;2.00;;
75090;SDS011;63674;48.048;8.306;2023-07-31T03:36:13;5.40;;;2.00;;
75090;SDS011;63674;48.048;8.306;2023-07-31T03:38:41;5.60;;;2.40;;
75090;SDS011;63674;48.048;8.306;2023-07-31T03:41:10;5.20;;;1.80;;
75090;SDS011;63674;48.048;8.306;2023-07-31T03:43:40;8.05;;;3.25;;
75090;SDS011;63674;48.048;8.306;2023-07-31T03:46:09;8.00;;;3.45;;
75090;SDS011;63674;48.048;8.306;2023-07-31T03:48:37;8.38;;;3.85;;
75090;SDS011;63674;48.048;8.306;2023-07-31T03:51:06;9.85;;;3.60;;
75090;SDS011;63674;48.048;8.306;2023-07-31T03:53:34;6.23;;;3.20;;
75090;SDS011;63674;48.048;8.306;2023-07-31T03:56:03;7.25;;;3.10;;
75090;SDS011;63674;48.048;8.306;2023-07-31T03:58:32;7.00;;;3.00;;
75090;SDS011;63674;48.048;8.306;2023-07-31T04:01:03;7.90;;;3.35;;
75090;SDS011;63674;48.048;8.306;2023-07-31T04:03:31;7.13;;;2.80;;
75090;SDS011;63674;48.048;8.306;2023-07-31T04:06:00;7.17;;;2.73;;
75090;SDS011;63674;48.048;8.306;2023-07-31T04:08:29;6.70;;;2.90;;
75090;SDS011;63674;48.048;8.306;2023-07-31T04:10:57;6.38;;;2.60;;
75090;SDS011;63674;48.048;8.306;2023-07-31T04:13:26;6.70;;;2.72;;
75090;SDS011;63674;48.048;8.306;2023-07-31T04:15:57;8.00;;;3.05;;
75090;SDS011;63674;48.048;8.306;2023-07-31T04:18:27;8.40;;;2.93;;
75090;SDS011;63674;48.048;8.306;2023-07-31T04:20:57;6.03;;;2.83;;
75090;SDS011;63674;48.048;8.306;2023-07-31T04:23:27;9.13;;;3.10;;
75090;SDS011;63674;48.048;8.306;2023-07-31T04:25:56;6.43;;;3.50;;
75090;SDS011;63674;48.048;8.306;2023-07-31T04:28:25;5.97;;;3.00;;
75090;SDS011;63674;48.048;8.306;2023-07-31T04:30:53;6.97;;;3.50;;
75090;SDS011;63674;48.048;8.306;2023-07-31T04:33:22;5.55;;;2.92;;
75090;SDS011;63674;48.048;8.306;2023-07-31T04:35:52;6.03;;;3.08;;
75090;SDS011;63674;48.048;8.306;2023-07-31T04:38:21;6.10;;;2.53;;
75090;SDS011;63674;48.048;8.306;2023-07-31T04:40:50;5.93;;;2.90;;
75090;SDS011;63674;48.048;8.306;2023-07-31T04:43:19;5.73;;;2.50;;
75090;SDS011;63674;48.048;8.306;2023-07-31T04:45:47;5.05;;;2.47;;
75090;SDS011;63674;48.048;8.306;2023-07-31T04:48:17;8.65;;;2.70;;
75090;SDS011;63674;48.048;8.306;2023-07-31T04:50:45;6.80;;;2.83;;
75090;SDS011;63674;48.048;8.306;2023-07-31T04:53:15;5.22;;;2.60;;
75090;SDS011;63674;48.048;8.306;2023-07-31T04:55:43;7.13;;;2.60;;
75090;SDS011;63674;48.048;8.306;2023-07-31T04:58:12;4.80;;;2.28;;
75090;SDS011;63674;48.048;8.306;2023-07-31T05:00:40;6.25;;;2.95;;
75090;SDS011;63674;48.048;8.306;2023-07-31T05:03:09;6.38;;;2.72;;
75090;SDS011;63674;48.048;8.306;2023-07-31T05:05:38;5.68;;;2.55;;
75090;SDS011;63674;48.048;8.306;2023-07-31T05:08:07;8.23;;;2.80;;
75090;SDS011;63674;48.048;8.306;2023-07-31T05:10:37;5.05;;;2.22;;
75090;SDS011;63674;48.048;8.306;2023-07-31T05:13:06;6.68;;;2.40;;
75090;SDS011;63674;48.048;8.306;2023-07-31T05:15:34;7.47;;;2.60;;
75090;SDS011;63674;48.048;8.306;2023-07-31T05:18:03;6.25;;;2.50;;
75090;SDS011;63674;48.048;8.306;2023-07-31T05:20:32;7.23;;;2.57;;
75090;SDS011;63674;48.048;8.306;2023-07-31T05:23:00;7.15;;;2.30;;
75090;SDS011;63674;48.048;8.306;2023-07-31T05:25:29;7.47;;;2.40;;
75090;SDS011;63674;48.048;8.306;2023-07-31T05:27:59;6.80;;;2.17;;
75090;SDS011;63674;48.048;8.306;2023-07-31T05:30:29;7.05;;;2.50;;
75090;SDS011;63674;48.048;8.306;2023-07-31T05:32:58;10.30;;;2.70;;
75090;SDS011;63674;48.048;8.306;2023-07-31T05:35:26;7.00;;;1.85;;
75090;SDS011;63674;48.048;8.306;2023-07-31T05:37:55;11.02;;;2.10;;
75090;SDS011;63674;48.048;8.306;2023-07-31T05:40:24;9.82;;;1.95;;
75090;SDS011;63674;48.048;8.306;2023-07-31T05:42:52;12.45;;;2.88;;
75090;SDS011;63674;48.048;8.306;2023-07-31T05:45:22;8.70;;;2.20;;
75090;SDS011;63674;48.048;8.306;2023-07-31T05:47:50;8.05;;;1.90;;
75090;SDS011;63674;48.048;8.306;2023-07-31T05:50:19;9.27;;;1.90;;
75090;SDS011;63674;48.048;8.306;2023-07-31T05:52:48;5.35;;;1.70;;
75090;SDS011;63674;48.048;8.306;2023-07-31T05:55:16;8.02;;;1.98;;
75090;SDS011;63674;48.048;8.306;2023-07-31T05:57:45;7.33;;;1.83;;
75090;SDS011;63674;48.048;8.306;2023-07-31T06:00:14;9.90;;;1.90;;
75090;SDS011;63674;48.048;8.306;2023-07-31T06:02:44;8.25;;;1.80;;
75090;SDS011;63674;48.048;8.306;2023-07-31T06:05:13;8.48;;;1.95;;
75090;SDS011;63674;48.048;8.306;2023-07-31T06:07:42;9.27;;;1.98;;
75090;SDS011;63674;48.048;8.306;2023-07-31T06:10:11;6.07;;;1.97;;
75090;SDS011;63674;48.048;8.306;2023-07-31T06:12:39;6.78;;;2.15;;
75090;SDS011;63674;48.048;8.306;2023-07-31T06:15:08;6.40;;;1.80;;
75090;SDS011;63674;48.048;8.306;2023-07-31T06:17:38;7.95;;;1.85;;
75090;SDS011;63674;48.048;8.306;2023-07-31T06:20:09;11.93;;;2.58;;
75090;SDS011;63674;48.048;8.306;2023-07-31T06:22:38;10.60;;;3.30;;
75090;SDS011;63674;48.048;8.306;2023-07-31T06:25:07;11.93;;;2.20;;
75090;SDS011;63674;48.048;8.306;2023-07-31T06:27:40;8.35;;;2.00;;
75090;SDS011;63674;48.048;8.306;2023-07-31T06:30:09;9.98;;;2.00;;
75090;SDS011;63674;48.048;8.306;2023-07-31T06:32:39;8.25;;;2.17;;
75090;SDS011;63674;48.048;8.306;2023-07-31T06:35:09;5.20;;;2.00;;
75090;SDS011;63674;48.048;8.306;2023-07-31T06:37:38;5.45;;;1.75;;
75090;SDS011;63674;48.048;8.306;2023-07-31T06:40:10;7.15;;;1.58;;
75090;SDS011;63674;48.048;8.306;2023-07-31T06:42:39;7.43;;;2.13;;
75090;SDS011;63674;48.048;8.306;2023-07-31T06:45:08;5.45;;;1.60;;
75090;SDS011;63674;48.048;8.306;2023-07-31T06:47:38;6.83;;;1.63;;
75090;SDS011;63674;48.048;8.306;2023-07-31T06:50:07;7.13;;;1.50;;
75090;SDS011;63674;48.048;8.306;2023-07-31T06:52:37;9.60;;;1.70;;
75090;SDS011;63674;48.048;8.306;2023-07-31T06:55:16;5.35;;;1.60;;
75090;SDS011;63674;48.048;8.306;2023-07-31T06:57:46;7.88;;;2.00;;
75090;SDS011;63674;48.048;8.306;2023-07-31T07:00:16;7.93;;;1.90;;
75090;SDS011;63674;48.048;8.306;2023-07-31T07:02:45;5.95;;;1.67;;
75090;SDS011;63674;48.048;8.306;2023-07-31T07:05:16;7.30;;;1.58;;
75090;SDS011;63674;48.048;8.306;2023-07-31T07:07:45;6.82;;;1.50;;
75090;SDS011;63674;48.048;8.306;2023-07-31T07:10:16;8.18;;;1.80;;
75090;SDS011;63674;48.048;8.306;2023-07-31T07:12:45;7.23;;;2.10;;
75090;SDS011;63674;48.048;8.306;2023-07-31T07:15:14;8.57;;;1.73;;
75090;SDS011;63674;48.048;8.306;2023-07-31T07:17:42;9.00;;;1.92;;
75090;SDS011;63674;48.048;8.306;2023-07-31T07:20:11;6.93;;;1.70;;
75090;SDS011;63674;48.048;8.306;2023-07-31T07:22:41;11.10;;;2.00;;
75090;SDS011;63674;48.048;8.306;2023-07-31T07:25:10;7.43;;;1.80;;
75090;SDS011;63674;48.048;8.306;2023-07-31T07:27:38;8.32;;;1.65;;
75090;SDS011;63674;48.048;8.306;2023-07-31T07:30:07;9.00;;;2.13;;
75090;SDS011;63674;48.048;8.306;2023-07-31T07:32:37;8.05;;;2.00;;
75090;SDS011;63674;48.048;8.306;2023-07-31T07:35:07;6.57;;;2.08;;
75090;SDS011;63674;48.048;8.306;2023-07-31T07:37:35;6.67;;;1.90;;
75090;SDS011;63674;48.048;8.306;2023-07-31T07:40:06;7.25;;;1.88;;
75090;SDS011;63674;48.048;8.306;2023-07-31T07:42:36;8.68;;;2.05;;
75090;SDS011;63674;48.048;8.306;2023-07-31T07:45:05;11.38;;;1.60;;
75090;SDS011;63674;48.048;8.306;2023-07-31T07:47:35;7.55;;;1.80;;
75090;SDS011;63674;48.048;8.306;2023-07-31T07:50:06;5.47;;;1.77;;
75090;SDS011;63674;48.048;8.306;2023-07-31T07:52:35;7.93;;;1.90;;
75090;SDS011;63674;48.048;8.306;2023-07-31T07:55:06;6.78;;;1.73;;
75090;SDS011;63674;48.048;8.306;2023-07-31T07:57:35;8.80;;;1.70;;
75090;SDS011;63674;48.048;8.306;2023-07-31T08:00:05;7.22;;;1.80;;
75090;SDS011;63674;48.048;8.306;2023-07-31T08:02:37;7.80;;;1.70;;
75090;SDS011;63674;48.048;8.306;2023-07-31T08:05:06;6.97;;;1.70;;
75090;SDS011;63674;48.048;8.306;2023-07-31T08:07:35;7.45;;;1.88;;
75090;SDS011;63674;48.048;8.306;2023-07-31T08:10:06;6.80;;;1.52;;
75090;SDS011;63674;48.048;8.306;2023-07-31T08:12:35;7.40;;;1.70;;
75090;SDS011;63674;48.048;8.306;2023-07-31T08:15:04;5.43;;;1.90;;
75090;SDS011;63674;48.048;8.306;2023-07-31T08:17:34;9.05;;;2.08;;
75090;SDS011;63674;48.048;8.306;2023-07-31T08:20:03;7.28;;;1.88;;
75090;SDS011;63674;48.048;8.306;2023-07-31T08:22:33;8.85;;;1.90;;
75090;SDS011;63674;48.048;8.306;2023-07-31T08:25:02;6.55;;;2.20;;
75090;SDS011;63674;48.048;8.306;2023-07-31T08:27:34;6.10;;;1.93;;
75090;SDS011;63674;48.048;8.306;2023-07-31T08:30:03;7.95;;;1.73;;
75090;SDS011;63674;48.048;8.306;2023-07-31T08:32:33;6.93;;;1.75;;
75090;SDS011;63674;48.048;8.306;2023-07-31T08:35:01;8.90;;;2.17;;
75090;SDS011;63674;48.048;8.306;2023-07-31T08:37:31;6.43;;;1.88;;
75090;SDS011;63674;48.048;8.306;2023-07-31T08:39:59;6.07;;;1.70;;
75090;SDS011;63674;48.048;8.306;2023-07-31T08:42:28;5.35;;;1.60;;
75090;SDS011;63674;48.048;8.306;2023-07-31T08:44:58;5.93;;;1.88;;
75090;SDS011;63674;48.048;8.306;2023-07-31T08:47:30;5.57;;;1.58;;
75090;SDS011;63674;48.048;8.306;2023-07-31T08:49:59;7.80;;;1.92;;
75090;SDS011;63674;48.048;8.306;2023-07-31T08:52:28;5.90;;;2.10;;
75090;SDS011;63674;48.048;8.306;2023-07-31T08:54:57;7.50;;;1.90;;
75090;SDS011;63674;48.048;8.306;2023-07-31T08:57:26;8.10;;;1.98;;
75090;SDS011;63674;48.048;8.306;2023-07-31T08:59:55;6.80;;;1.80;;
75090;SDS011;63674;48.048;8.306;2023-07-31T09:02:26;6.63;;;1.67;;
75090;SDS011;63674;48.048;8.306;2023-07-31T09:05:02;6.90;;;1.90;;
75090;SDS011;63674;48.048;8.306;2023-07-31T09:07:33;5.68;;;1.65;;
75090;SDS011;63674;48.048;8.306;2023-07-31T09:10:04;7.50;;;2.30;;
75090;SDS011;63674;48.048;8.306;2023-07-31T09:12:33;9.95;;;1.70;;
75090;SDS011;63674;48.048;8.306;2023-07-31T09:15:04;6.43;;;2.08;;
75090;SDS011;63674;48.048;8.306;2023-07-31T09:17:47;7.43;;;2.03;;
75090;SDS011;63674;48.048;8.306;2023-07-31T09:20:26;6.78;;;2.08;;
75090;SDS011;63674;48.048;8.306;2023-07-31T09:22:55;6.55;;;1.75;;
75090;SDS011;63674;48.048;8.306;2023-07-31T09:25:25;6.25;;;1.80;;
75090;SDS011;63674;48.048;8.306;2023-07-31T09:27:57;6.68;;;2.00;;
75090;SDS011;63674;48.048;8.306;2023-07-31T09:30:27;6.37;;;1.67;;
75090;SDS011;63674;48.048;8.306;2023-07-31T09:33:02;8.77;;;2.10;;
75090;SDS011;63674;48.048;8.306;2023-07-31T09:35:34;6.88;;;1.85;;
75090;SDS011;63674;48.048;8.306;2023-07-31T09:38:05;5.43;;;1.73;;
75090;SDS011;63674;48.048;8.306;2023-07-31T09:40:37;8.52;;;1.70;;
75090;SDS011;63674;48.048;8.306;2023-07-31T09:43:08;7.97;;;2.00;;
75090;SDS011;63674;48.048;8.306;2023-07-31T09:45:38;6.57;;;1.77;;
75090;SDS011;63674;48.048;8.306;2023-07-31T09:48:11;7.10;;;1.80;;
75090;SDS011;63674;48.048;8.306;2023-07-31T09:51:03;6.40;;;1.80;;
75090;SDS011;63674;48.048;8.306;2023-07-31T09:53:32;7.57;;;1.90;;
75090;SDS011;63674;48.048;8.306;2023-07-31T09:56:01;5.90;;;1.50;;
75090;SDS011;63674;48.048;8.306;2023-07-31T09:58:32;6.50;;;2.00;;
75090;SDS011;63674;48.048;8.306;2023-07-31T10:01:03;6.30;;;2.00;;
75090;SDS011;63674;48.048;8.306;2023-07-31T10:03:33;7.30;;;1.80;;
75090;SDS011;63674;48.048;8.306;2023-07-31T10:06:02;7.43;;;1.88;;
75090;SDS011;63674;48.048;8.306;2023-07-31T10:08:32;5.03;;;1.30;;
75090;SDS011;63674;48.048;8.306;2023-07-31T10:11:04;5.60;;;1.73;;
75090;SDS011;63674;48.048;8.306;2023-07-31T10:13:35;5.47;;;1.70;;
75090;SDS011;63674;48.048;8.306;2023-07-31T10:16:04;6.47;;;1.55;;
75090;SDS011;63674;48.048;8.306;2023-07-31T10:18:34;5.97;;;1.60;;
75090;SDS011;63674;48.048;8.306;2023-07-31T10:21:04;6.83;;;1.70;;
75090;SDS011;63674;48.048;8.306;2023-07-31T10:23:33;7.05;;;1.52;;
75090;SDS011;63674;48.048;8.306;2023-07-31T10:26:02;6.43;;;1.65;;
75090;SDS011;63674;48.048;8.306;2023-07-31T10:28:33;6.63;;;1.80;;
75090;SDS011;63674;48.048;8.306;2023-07-31T10:31:03;6.88;;;1.85;;
75090;SDS011;63674;48.048;8.306;2023-07-31T10:33:35;6.43;;;1.70;;
75090;SDS011;63674;48.048;8.306;2023-07-31T10:36:14;5.00;;;1.70;;
75090;SDS011;63674;48.048;8.306;2023-07-31T10:38:44;6.00;;;1.60;;
75090;SDS011;63674;48.048;8.306;2023-07-31T10:41:13;5.55;;;1.58;;
75090;SDS011;63674;48.048;8.306;2023-07-31T10:43:42;6.72;;;1.67;;
75090;SDS011;63674;48.048;8.306;2023-07-31T10:46:13;5.27;;;1.37;;
75090;SDS011;63674;48.048;8.306;2023-07-31T10:48:44;6.05;;;1.55;;
75090;SDS011;63674;48.048;8.306;2023-07-31T10:51:12;6.40;;;1.80;;
75090;SDS011;63674;48.048;8.306;2023-07-31T10:53:42;4.80;;;1.30;;
75090;SDS011;63674;48.048;8.306;2023-07-31T10:56:11;4.72;;;1.55;;
75090;SDS011;63674;48.048;8.306;2023-07-31T10:58:45;5.40;;;1.70;;
75090;SDS011;63674;48.048;8.306;2023-07-31T11:01:13;5.63;;;1.50;;
75090;SDS011;63674;48.048;8.306;2023-07-31T11:03:44;6.57;;;1.95;;
75090;SDS011;63674;48.048;8.306;2023-07-31T11:06:15;5.40;;;1.85;;
75090;SDS011;63674;48.048;8.306;2023-07-31T11:08:45;5.55;;;1.83;;
75090;SDS011;63674;48.048;8.306;2023-07-31T11:11:17;6.00;;;1.63;;
75090;SDS011;63674;48.048;8.306;2023-07-31T11:13:48;5.45;;;1.58;;
75090;SDS011;63674;48.048;8.306;2023-07-31T11:16:20;5.45;;;1.70;;
75090;SDS011;63674;48.048;8.306;2023-07-31T11:18:52;5.13;;;1.83;;
75090;SDS011;63674;48.048;8.306;2023-07-31T11:21:23;5.95;;;2.00;;
75090;SDS011;63674;48.048;8.306;2023-07-31T11:23:53;8.00;;;2.10;;
75090;SDS011;63674;48.048;8.306;2023-07-31T11:26:25;5.80;;;1.98;;
75090;SDS011;63674;48.048;8.306;2023-07-31T11:28:54;7.15;;;2.05;;
75090;SDS011;63674;48.048;8.306;2023-07-31T11:31:23;6.47;;;2.03;;
75090;SDS011;63674;48.048;8.306;2023-07-31T11:34:05;6.38;;;1.75;;
75090;SDS011;63674;48.048;8.306;2023-07-31T11:36:34;6.67;;;2.10;;
75090;SDS011;63674;48.048;8.306;2023-07-31T11:39:07;5.65;;;2.30;;
75090;SDS011;63674;48.048;8.306;2023-07-31T11:41:40;6.97;;;2.40;;
75090;SDS011;63674;48.048;8.306;2023-07-31T11:44:09;6.32;;;2.20;;
75090;SDS011;63674;48.048;8.306;2023-07-31T11:46:53;6.13;;;2.05;;
75090;SDS011;63674;48.048;8.306;2023-07-31T11:49:26;6.77;;;2.30;;
75090;SDS011;63674;48.048;8.306;2023-07-31T11:51:55;6.63;;;2.40;;
75090;SDS011;63674;48.048;8.306;2023-07-31T11:54:23;7.72;;;2.40;;
75090;SDS011;63674;48.048;8.306;2023-07-31T11:56:52;7.28;;;2.28;;
75090;SDS011;63674;48.048;8.306;2023-07-31T11:59:21;6.15;;;2.53;;
75090;SDS011;63674;48.048;8.306;2023-07-31T12:01:50;6.57;;;2.13;;
75090;SDS011;63674;48.048;8.306;2023-07-31T12:04:20;7.88;;;2.45;;
75090;SDS011;63674;48.048;8.306;2023-07-31T12:06:50;7.40;;;2.33;;
75090;SDS011;63674;48.048;8.306;2023-07-31T12:09:24;6.32;;;2.50;;
75090;SDS011;63674;48.048;8.306;2023-07-31T12:11:53;6.25;;;2.25;;
75090;SDS011;63674;48.048;8.306;2023-07-31T12:14:22;7.43;;;2.50;;
75090;SDS011;63674;48.048;8.306;2023-07-31T12:16:53;7.00;;;2.70;;
75090;SDS011;63674;48.048;8.306;2023-07-31T12:19:23;6.85;;;2.45;;
75090;SDS011;63674;48.048;8.306;2023-07-31T12:21:55;7.38;;;2.28;;
75090;SDS011;63674;48.048;8.306;2023-07-31T12:24:25;6.53;;;2.38;;
75090;SDS011;63674;48.048;8.306;2023-07-31T12:26:54;8.27;;;2.47;;
75090;SDS011;63674;48.048;8.306;2023-07-31T12:29:23;7.78;;;2.38;;
75090;SDS011;63674;48.048;8.306;2023-07-31T12:31:51;8.07;;;2.65;;
75090;SDS011;63674;48.048;8.306;2023-07-31T12:34:20;7.25;;;2.70;;
75090;SDS011;63674;48.048;8.306;2023-07-31T12:36:48;6.63;;;2.38;;
75090;SDS011;63674;48.048;8.306;2023-07-31T12:39:18;7.60;;;2.40;;
75090;SDS011;63674;48.048;8.306;2023-07-31T12:41:47;6.47;;;2.40;;
75090;SDS011;63674;48.048;8.306;2023-07-31T12:44:16;7.47;;;2.55;;
75090;SDS011;63674;48.048;8.306;2023-07-31T12:46:44;6.47;;;2.30;;
75090;SDS011;63674;48.048;8.306;2023-07-31T12:49:13;6.60;;;2.30;;
75090;SDS011;63674;48.048;8.306;2023-07-31T12:51:41;7.60;;;2.50;;
75090;SDS011;63674;48.048;8.306;2023-07-31T12:54:10;7.82;;;2.63;;
75090;SDS011;63674;48.048;8.306;2023-07-31T12:56:41;6.22;;;2.42;;
75090;SDS011;63674;48.048;8.306;2023-07-31T12:59:10;6.20;;;2.60;;
75090;SDS011;63674;48.048;8.306;2023-07-31T13:01:38;6.60;;;2.60;;
75090;SDS011;63674;48.048;8.306;2023-07-31T13:04:07;7.63;;;2.60;;
75090;SDS011;63674;48.048;8.306;2023-07-31T13:06:36;6.43;;;2.45;;
75090;SDS011;63674;48.048;8.306;2023-07-31T13:09:05;6.88;;;2.60;;
75090;SDS011;63674;48.048;8.306;2023-07-31T13:11:33;6.38;;;2.38;;
75090;SDS011;63674;48.048;8.306;2023-07-31T13:14:03;6.22;;;2.47;;
75090;SDS011;63674;48.048;8.306;2023-07-31T13:16:31;8.77;;;2.70;;
75090;SDS011;63674;48.048;8.306;2023-07-31T13:19:00;6.28;;;2.30;;
75090;SDS011;63674;48.048;8.306;2023-07-31T13:21:30;8.68;;;2.38;;
75090;SDS011;63674;48.048;8.306;2023-07-31T13:24:00;6.90;;;2.53;;
75090;SDS011;63674;48.048;8.306;2023-07-31T13:26:28;7.20;;;2.58;;
75090;SDS011;63674;48.048;8.306;2023-07-31T13:28:57;6.80;;;2.70;;
75090;SDS011;63674;48.048;8.306;2023-07-31T13:31:27;5.95;;;2.20;;
75090;SDS011;63674;48.048;8.306;2023-07-31T13:33:56;6.45;;;2.50;;
75090;SDS011;63674;48.048;8.306;2023-07-31T13:36:25;6.97;;;2.60;;
75090;SDS011;63674;48.048;8.306;2023-07-31T13:38:53;6.72;;;2.47;;
75090;SDS011;63674;48.048;8.306;2023-07-31T13:41:22;5.93;;;2.30;;
75090;SDS011;63674;48.048;8.306;2023-07-31T13:43:50;6.40;;;2.15;;
75090;SDS011;63674;48.048;8.306;2023-07-31T13:46:19;6.13;;;1.90;;
75090;SDS011;63674;48.048;8.306;2023-07-31T13:48:49;5.90;;;2.28;;
75090;SDS011;63674;48.048;8.306;2023-07-31T13:51:21;5.80;;;2.25;;
75090;SDS011;63674;48.048;8.306;2023-07-31T13:53:49;6.30;;;1.97;;
75090;SDS011;63674;48.048;8.306;2023-07-31T13:56:18;6.25;;;1.85;;
75090;SDS011;63674;48.048;8.306;2023-07-31T13:58:47;7.35;;;2.05;;
75090;SDS011;63674;48.048;8.306;2023-07-31T14:01:16;7.85;;;1.95;;
75090;SDS011;63674;48.048;8.306;2023-07-31T14:03:44;5.75;;;1.90;;
75090;SDS011;63674;48.048;8.306;2023-07-31T14:06:14;6.93;;;2.20;;
75090;SDS011;63674;48.048;8.306;2023-07-31T14:08:43;6.18;;;1.85;;
75090;SDS011;63674;48.048;8.306;2023-07-31T14:11:11;8.70;;;2.17;;
75090;SDS011;63674;48.048;8.306;2023-07-31T14:13:40;7.07;;;1.73;;
75090;SDS011;63674;48.048;8.306;2023-07-31T14:16:08;7.25;;;2.05;;
75090;SDS011;63674;48.048;8.306;2023-07-31T14:18:37;6.20;;;2.00;;
75090;SDS011;63674;48.048;8.306;2023-07-31T14:21:06;5.45;;;1.95;;
75090;SDS011;63674;48.048;8.306;2023-07-31T14:23:36;7.18;;;2.13;;
75090;SDS011;63674;48.048;8.306;2023-07-31T14:26:04;6.60;;;2.00;;
75090;SDS011;63674;48.048;8.306;2023-07-31T14:28:33;5.90;;;2.00;;
75090;SDS011;63674;48.048;8.306;2023-07-31T14:31:02;6.63;;;2.17;;
75090;SDS011;63674;48.048;8.306;2023-07-31T14:33:31;5.35;;;1.92;;
75090;SDS011;63674;48.048;8.306;2023-07-31T14:35:59;6.85;;;2.25;;
75090;SDS011;63674;48.048;8.306;2023-07-31T14:38:28;6.88;;;2.10;;
75090;SDS011;63674;48.048;8.306;2023-07-31T14:40:58;5.93;;;2.05;;
75090;SDS011;63674;48.048;8.306;2023-07-31T14:43:27;5.50;;;2.00;;
75090;SDS011;63674;48.048;8.306;2023-07-31T14:45:55;6.22;;;2.20;;
75090;SDS011;63674;48.048;8.306;2023-07-31T14:48:26;8.40;;;2.10;;
75090;SDS011;63674;48.048;8.306;2023-07-31T14:50:55;7.47;;;2.20;;
75090;SDS011;63674;48.048;8.306;2023-07-31T14:53:24;5.60;;;2.00;;
75090;SDS011;63674;48.048;8.306;2023-07-31T14:55:53;6.30;;;2.10;;
75090;SDS011;63674;48.048;8.306;2023-07-31T14:58:23;6.30;;;2.20;;
75090;SDS011;63674;48.048;8.306;2023-07-31T15:00:52;6.28;;;2.10;;
75090;SDS011;63674;48.048;8.306;2023-07-31T15:03:21;6.88;;;2.20;;